createdAt,value
2023-09-15T00:01:14.269Z,11.80
2023-09-15T00:03:42.274Z,11.80
2023-09-15T00:06:11.567Z,11.90
2023-09-15T00:08:39.542Z,11.90
2023-09-15T00:11:09.502Z,11.90
2023-09-15T00:13:37.427Z,12.00
2023-09-15T00:16:07.502Z,12.00
2023-09-15T00:18:36.593Z,12.00
2023-09-15T00:21:06.287Z,12.10
2023-09-15T00:23:35.584Z,12.10
2023-09-15T00:26:03.908Z,12.10
2023-09-15T00:28:31.940Z,12.10
2023-09-15T00:31:00.183Z,12.10
2023-09-15T00:33:28.204Z,12.10
2023-09-15T00:35:56.094Z,12.10
2023-09-15T00:38:23.991Z,12.10
2023-09-15T00:40:53.227Z,12.10
2023-09-15T00:43:21.099Z,12.10
2023-09-15T00:45:49.151Z,12.00
2023-09-15T00:48:18.751Z,12.00
2023-09-15T00:50:47.169Z,12.00
2023-09-15T00:53:17.549Z,11.90
2023-09-15T00:55:46.118Z,11.90
2023-09-15T00:58:17.364Z,11.80
2023-09-15T01:00:46.097Z,11.70
2023-09-15T01:03:16.315Z,11.70
2023-09-15T01:05:44.945Z,11.70
2023-09-15T01:08:13.502Z,11.70
2023-09-15T01:10:41.460Z,11.60
2023-09-15T01:13:10.057Z,11.60
2023-09-15T01:15:41.025Z,11.60
2023-09-15T01:18:11.860Z,11.50
2023-09-15T01:21:09.959Z,11.40
2023-09-15T01:23:49.457Z,11.40
2023-09-15T01:26:23.560Z,11.40
2023-09-15T01:29:02.083Z,11.30
2023-09-15T01:31:32.146Z,11.20
2023-09-15T01:34:00.223Z,11.20
2023-09-15T01:36:28.157Z,11.10
2023-09-15T01:38:56.030Z,11.10
2023-09-15T01:41:23.984Z,11.10
2023-09-15T01:43:54.409Z,11.00
2023-09-15T01:46:25.201Z,11.00
2023-09-15T01:48:55.329Z,11.00
2023-09-15T01:51:23.896Z,11.00
2023-09-15T01:53:52.428Z,11.00
2023-09-15T01:56:22.113Z,10.90
2023-09-15T01:58:50.028Z,10.90
2023-09-15T02:01:17.914Z,10.90
2023-09-15T02:03:45.885Z,10.90
2023-09-15T02:06:17.979Z,10.90
2023-09-15T02:08:47.191Z,10.80
2023-09-15T02:11:15.518Z,10.80
2023-09-15T02:13:44.441Z,10.80
2023-09-15T02:16:13.187Z,10.80
2023-09-15T02:18:41.405Z,10.70
2023-09-15T02:21:09.346Z,10.70
2023-09-15T02:23:38.694Z,10.70
2023-09-15T02:26:06.950Z,10.70
2023-09-15T02:28:35.424Z,10.60
2023-09-15T02:31:05.046Z,10.60
2023-09-15T02:33:33.277Z,10.60
2023-09-15T02:36:01.142Z,10.60
2023-09-15T02:38:29.041Z,10.50
2023-09-15T02:40:58.322Z,10.60
2023-09-15T02:43:26.287Z,10.50
2023-09-15T02:45:54.314Z,10.50
2023-09-15T02:48:22.328Z,10.50
2023-09-15T02:50:50.708Z,10.50
2023-09-15T02:53:18.580Z,10.40
2023-09-15T02:55:55.931Z,10.40
2023-09-15T02:58:25.258Z,10.40
2023-09-15T03:00:53.335Z,10.40
2023-09-15T03:03:25.668Z,10.30
2023-09-15T03:06:04.076Z,10.40
2023-09-15T03:08:32.109Z,10.40
2023-09-15T03:11:00.019Z,10.30
2023-09-15T03:13:29.347Z,10.30
2023-09-15T03:15:58.823Z,10.30
2023-09-15T03:18:27.021Z,10.30
2023-09-15T03:20:54.938Z,10.30
2023-09-15T03:23:22.845Z,10.20
2023-09-15T03:25:59.751Z,10.20
2023-09-15T03:28:29.008Z,10.20
2023-09-15T03:30:57.032Z,10.10
2023-09-15T03:33:25.463Z,10.20
2023-09-15T03:35:53.628Z,10.10
2023-09-15T03:38:21.513Z,10.10
2023-09-15T03:40:49.387Z,10.10
2023-09-15T03:43:17.301Z,10.10
2023-09-15T03:45:48.108Z,10.00
2023-09-15T03:48:16.192Z,10.10
2023-09-15T03:50:44.242Z,10.10
2023-09-15T03:53:12.556Z,10.00
2023-09-15T03:55:40.633Z,10.00
2023-09-15T03:58:08.619Z,10.00
2023-09-15T04:00:36.618Z,10.00
2023-09-15T04:03:06.256Z,10.00
2023-09-15T04:05:34.495Z,9.90
2023-09-15T04:08:02.440Z,9.90
2023-09-15T04:10:30.453Z,9.80
2023-09-15T04:12:58.446Z,9.80
2023-09-15T04:15:26.438Z,9.80
2023-09-15T04:17:56.494Z,9.80
2023-09-15T04:20:39.588Z,9.80
2023-09-15T04:23:12.820Z,9.80
2023-09-15T04:25:40.760Z,9.80
2023-09-15T04:28:08.815Z,9.80
2023-09-15T04:30:36.748Z,9.70
2023-09-15T04:33:04.916Z,9.70
2023-09-15T04:35:34.298Z,9.70
2023-09-15T04:38:03.572Z,9.70
2023-09-15T04:40:31.551Z,9.70
2023-09-15T04:43:00.671Z,9.60
2023-09-15T04:45:28.792Z,9.60
2023-09-15T04:47:56.781Z,9.70
2023-09-15T04:50:24.760Z,9.60
2023-09-15T04:52:54.269Z,9.60
2023-09-15T04:55:22.264Z,9.70
2023-09-15T04:57:50.219Z,9.60
2023-09-15T05:00:24.617Z,9.60
2023-09-15T05:02:52.806Z,9.60
2023-09-15T05:05:20.992Z,9.60
2023-09-15T05:07:48.853Z,9.60
2023-09-15T05:10:18.495Z,9.60
2023-09-15T05:12:46.441Z,9.70
2023-09-15T05:15:14.349Z,9.70
2023-09-15T05:17:42.497Z,9.60
2023-09-15T05:20:10.663Z,9.70
2023-09-15T05:22:38.636Z,9.70
2023-09-15T05:25:07.328Z,9.70
2023-09-15T05:27:36.717Z,9.70
2023-09-15T05:30:05.686Z,9.80
2023-09-15T05:32:33.655Z,9.80
2023-09-15T05:35:01.586Z,9.80
2023-09-15T05:37:29.615Z,9.90
2023-09-15T05:39:57.663Z,9.90
2023-09-15T05:42:25.556Z,10.00
2023-09-15T05:44:55.674Z,10.00
2023-09-15T05:47:23.787Z,10.10
2023-09-15T05:49:51.773Z,10.20
2023-09-15T05:52:19.787Z,10.30
2023-09-15T05:54:47.768Z,10.40
2023-09-15T05:57:15.812Z,10.50
2023-09-15T05:59:44.019Z,10.50
2023-09-15T06:04:44.349Z,10.70
2023-09-15T06:07:12.392Z,10.90
2023-09-15T06:09:40.388Z,11.00
2023-09-15T06:12:08.385Z,11.10
2023-09-15T06:14:38.389Z,11.20
2023-09-15T06:17:06.423Z,11.30
2023-09-15T06:19:38.477Z,11.40
2023-09-15T06:22:07.604Z,11.60
2023-09-15T06:24:35.540Z,11.70
2023-09-15T06:27:03.490Z,11.80
2023-09-15T06:29:31.573Z,12.00
2023-09-15T06:31:59.611Z,12.10
2023-09-15T06:34:28.277Z,12.30
2023-09-15T06:36:57.980Z,12.40
2023-09-15T06:39:26.092Z,12.60
2023-09-15T06:41:54.696Z,12.70
2023-09-15T06:44:22.631Z,12.80
2023-09-15T06:46:50.720Z,13.00
2023-09-15T06:49:22.931Z,13.20
2023-09-15T06:51:51.239Z,13.40
2023-09-15T06:54:20.574Z,13.50
2023-09-15T06:56:48.686Z,13.70
2023-09-15T06:59:16.678Z,13.80
2023-09-15T07:01:45.486Z,14.00
2023-09-15T07:04:15.161Z,14.00
2023-09-15T07:06:43.181Z,14.20
2023-09-15T07:09:11.048Z,14.40
2023-09-15T07:11:40.321Z,14.60
2023-09-15T07:14:08.226Z,14.80
2023-09-15T07:16:36.657Z,14.90
2023-09-15T07:19:05.242Z,15.10
2023-09-15T07:21:34.808Z,15.30
2023-09-15T07:24:02.887Z,15.50
2023-09-15T07:26:30.807Z,15.60
2023-09-15T07:29:00.051Z,15.80
2023-09-15T07:31:28.717Z,16.00
2023-09-15T07:33:56.733Z,16.10
2023-09-15T07:36:24.642Z,16.20
2023-09-15T07:38:53.913Z,16.40
2023-09-15T07:41:21.837Z,16.60
2023-09-15T07:43:49.944Z,16.80
2023-09-15T07:46:19.549Z,16.90
2023-09-15T07:48:47.685Z,17.00
2023-09-15T07:51:16.919Z,17.20
2023-09-15T07:53:45.244Z,17.40
2023-09-15T07:56:13.753Z,17.60
2023-09-15T07:58:41.771Z,17.70
2023-09-15T08:01:09.749Z,18.00
2023-09-15T08:03:39.931Z,18.10
2023-09-15T08:06:08.181Z,18.20
2023-09-15T08:08:36.335Z,18.40
2023-09-15T08:11:04.267Z,18.60
2023-09-15T08:13:32.287Z,18.70
2023-09-15T08:16:00.347Z,18.90
2023-09-15T08:18:28.508Z,19.00
2023-09-15T08:20:58.101Z,19.00
2023-09-15T08:23:26.154Z,19.20
2023-09-15T08:25:54.182Z,19.40
2023-09-15T08:28:23.613Z,19.40
2023-09-15T08:30:51.753Z,19.60
2023-09-15T08:33:20.731Z,19.90
2023-09-15T08:35:48.728Z,20.00
2023-09-15T08:38:18.007Z,20.30
2023-09-15T08:40:48.984Z,20.50
2023-09-15T08:43:17.229Z,20.70
2023-09-15T08:45:45.858Z,20.90
2023-09-15T08:48:15.276Z,21.00
2023-09-15T08:50:43.380Z,21.20
2023-09-15T08:53:12.162Z,21.40
2023-09-15T08:55:42.649Z,21.50
2023-09-15T08:58:11.154Z,21.60
2023-09-15T09:00:39.533Z,22.00
2023-09-15T09:03:07.647Z,22.30
2023-09-15T09:05:37.392Z,22.20
2023-09-15T09:08:05.799Z,22.20
2023-09-15T09:10:33.945Z,22.50
2023-09-15T09:13:04.302Z,22.60
2023-09-15T09:15:33.909Z,22.80
2023-09-15T09:18:01.887Z,22.90
2023-09-15T09:20:30.254Z,23.00
2023-09-15T09:22:58.194Z,23.20
2023-09-15T09:25:29.826Z,23.60
2023-09-15T09:27:57.965Z,23.90
2023-09-15T09:30:30.292Z,24.10
2023-09-15T09:32:58.445Z,24.10
2023-09-15T09:35:27.111Z,24.30
2023-09-15T09:37:55.982Z,24.10
2023-09-15T09:40:24.293Z,24.20
2023-09-15T09:42:52.518Z,24.50
2023-09-15T09:45:26.418Z,24.50
2023-09-15T09:47:56.190Z,24.10
2023-09-15T09:50:24.468Z,24.40
2023-09-15T09:52:52.631Z,24.80
2023-09-15T09:55:21.346Z,24.50
2023-09-15T09:57:49.315Z,24.80
2023-09-15T10:00:21.893Z,25.00
2023-09-15T10:02:50.082Z,25.10
2023-09-15T10:05:20.137Z,25.20
2023-09-15T10:07:48.353Z,25.30
2023-09-15T10:10:16.439Z,24.70
2023-09-15T10:12:44.528Z,24.20
2023-09-15T10:15:13.190Z,23.80
2023-09-15T10:17:43.320Z,24.10
2023-09-15T10:20:11.831Z,24.50
2023-09-15T10:22:41.132Z,25.00
2023-09-15T10:25:17.240Z,25.30
2023-09-15T10:27:46.212Z,25.70
2023-09-15T10:30:14.549Z,26.00
2023-09-15T10:32:44.757Z,26.00
2023-09-15T10:35:13.112Z,26.30
2023-09-15T10:37:44.032Z,26.50
2023-09-15T10:40:13.470Z,26.70
2023-09-15T10:42:51.360Z,26.90
2023-09-15T10:45:20.131Z,26.90
2023-09-15T10:47:56.763Z,26.70
2023-09-15T10:50:31.852Z,26.90
2023-09-15T10:53:09.680Z,26.90
2023-09-15T10:55:38.013Z,27.20
2023-09-15T10:58:06.208Z,27.20
2023-09-15T11:00:34.936Z,27.40
2023-09-15T11:03:05.246Z,27.70
2023-09-15T11:05:33.342Z,27.80
2023-09-15T11:08:02.267Z,27.80
2023-09-15T20:03:04.609Z,14.60
2023-09-15T20:05:33.404Z,14.60
2023-09-15T20:08:08.660Z,14.60
2023-09-15T20:10:36.627Z,14.50
2023-09-15T20:13:04.837Z,14.40
2023-09-15T20:15:34.538Z,14.40
2023-09-15T20:18:03.921Z,14.30
2023-09-15T20:23:08.980Z,14.20
2023-09-15T20:25:36.963Z,14.20
2023-09-15T20:28:05.195Z,14.10
2023-09-15T20:30:33.233Z,14.00
2023-09-15T20:33:01.236Z,14.00
2023-09-15T20:35:32.255Z,14.00
2023-09-15T20:38:00.172Z,13.90
2023-09-15T20:40:28.122Z,13.90
2023-09-15T20:42:56.168Z,13.90
2023-09-15T20:45:25.530Z,13.90
2023-09-15T20:47:54.553Z,13.80
2023-09-15T20:50:22.975Z,13.80
2023-09-15T20:52:52.315Z,13.70
2023-09-15T20:55:20.284Z,13.60
2023-09-15T20:57:48.268Z,13.60
2023-09-15T21:00:16.342Z,13.50
2023-09-15T21:02:44.297Z,13.50
2023-09-15T21:05:15.400Z,13.40
2023-09-15T21:07:43.577Z,13.40
2023-09-15T21:10:12.860Z,13.40
2023-09-15T21:12:41.976Z,13.30
2023-09-15T21:15:10.280Z,13.30
2023-09-15T21:17:38.474Z,13.30
2023-09-15T21:20:09.008Z,13.20
2023-09-15T21:22:36.960Z,13.20
2023-09-15T21:25:05.079Z,13.10
2023-09-15T21:27:34.467Z,13.10
2023-09-15T21:30:02.482Z,13.10
2023-09-15T21:32:30.491Z,13.00
2023-09-15T21:34:58.566Z,12.90
2023-09-15T21:37:26.468Z,12.90
2023-09-15T21:39:54.388Z,12.80
2023-09-15T21:42:22.450Z,12.80
2023-09-15T21:44:51.726Z,12.70
2023-09-15T21:47:19.629Z,12.70
2023-09-15T21:49:47.524Z,12.60
2023-09-15T21:52:15.422Z,12.60
2023-09-15T21:54:43.348Z,12.60
2023-09-15T21:57:11.614Z,12.50
2023-09-15T21:59:39.520Z,12.60
2023-09-15T22:02:12.251Z,12.50
2023-09-15T22:04:41.017Z,12.50
2023-09-15T22:07:08.975Z,12.50
2023-09-15T22:09:36.862Z,12.50
2023-09-15T22:12:05.880Z,12.40
2023-09-15T22:14:33.785Z,12.40
2023-09-15T22:17:01.962Z,12.40
2023-09-15T22:19:31.255Z,12.30
2023-09-15T22:21:59.552Z,12.30
2023-09-15T22:24:27.658Z,12.30
2023-09-15T22:26:55.573Z,12.20
2023-09-15T22:29:23.500Z,12.10
2023-09-15T22:31:51.466Z,12.10
2023-09-15T22:34:19.418Z,12.10
2023-09-15T22:36:51.715Z,12.00
2023-09-15T22:39:19.756Z,12.00
2023-09-15T22:41:48.123Z,11.90
2023-09-15T22:44:16.012Z,11.90
2023-09-15T22:46:45.098Z,11.80
2023-09-15T22:49:15.982Z,11.80
2023-09-15T22:51:43.959Z,11.80
2023-09-15T22:54:14.369Z,11.80
2023-09-15T22:56:42.825Z,11.80
2023-09-15T22:59:10.739Z,11.80
2023-09-15T23:01:38.729Z,11.70
2023-09-15T23:04:06.921Z,11.60
2023-09-15T23:06:34.900Z,11.70
2023-09-15T23:09:02.812Z,11.60
2023-09-15T23:11:32.154Z,11.60
2023-09-15T23:14:00.080Z,11.60
2023-09-15T23:16:28.651Z,11.60
2023-09-15T23:18:56.720Z,11.60
2023-09-15T23:21:24.650Z,11.50
2023-09-15T23:23:52.594Z,11.50
2023-09-15T23:26:20.525Z,11.40
2023-09-15T23:28:50.102Z,11.50
2023-09-15T23:31:18.339Z,11.40
2023-09-15T23:33:46.375Z,11.40
2023-09-15T23:36:14.281Z,11.30
2023-09-15T23:38:42.154Z,11.30
2023-09-15T23:41:10.106Z,11.30
2023-09-15T23:43:38.008Z,11.30
2023-09-15T23:46:07.271Z,11.30
2023-09-15T23:48:36.502Z,11.20
2023-09-15T23:51:04.620Z,11.20
2023-09-15T23:53:32.498Z,11.20
2023-09-15T23:56:00.561Z,11.20
2023-09-15T23:58:28.475Z,11.20
